sensor_id;sensor_type;location;lat;lon;timestamp;P1;durP1;ratioP1;P2;durP2;ratioP2
10063;SDS011;5071;52.360;13.134;2022-09-13T00:03:58;2.50;;;2.30;;
10063;SDS011;5071;52.360;13.134;2022-09-13T00:09:00;1.93;;;1.83;;
10063;SDS011;5071;52.360;13.134;2022-09-13T00:14:02;2.00;;;1.80;;
10063;SDS011;5071;52.360;13.134;2022-09-13T00:19:05;2.23;;;2.03;;
10063;SDS011;5071;52.360;13.134;2022-09-13T00:24:07;2.80;;;2.30;;
10063;SDS011;5071;52.360;13.134;2022-09-13T00:29:08;2.63;;;2.40;;
10063;SDS011;5071;52.360;13.134;2022-09-13T00:34:12;2.63;;;2.37;;
10063;SDS011;5071;52.360;13.134;2022-09-13T00:39:14;2.90;;;2.20;;
10063;SDS011;5071;52.360;13.134;2022-09-13T00:49:55;3.00;;;2.50;;
10063;SDS011;5071;52.360;13.134;2022-09-13T00:55:04;2.63;;;2.43;;
10063;SDS011;5071;52.360;13.134;2022-09-13T01:00:12;3.27;;;2.80;;
10063;SDS011;5071;52.360;13.134;2022-09-13T01:05:21;3.30;;;3.00;;
10063;SDS011;5071;52.360;13.134;2022-09-13T01:10:27;2.83;;;2.53;;
10063;SDS011;5071;52.360;13.134;2022-09-13T01:15:29;3.07;;;2.73;;
10063;SDS011;5071;52.360;13.134;2022-09-13T01:20:36;3.20;;;2.90;;
10063;SDS011;5071;52.360;13.134;2022-09-13T01:25:55;2.83;;;2.60;;
10063;SDS011;5071;52.360;13.134;2022-09-13T01:31:19;3.73;;;3.23;;
10063;SDS011;5071;52.360;13.134;2022-09-13T01:42:01;4.00;;;2.80;;
10063;SDS011;5071;52.360;13.134;2022-09-13T01:47:16;2.53;;;2.33;;
10063;SDS011;5071;52.360;13.134;2022-09-13T01:52:27;4.40;;;2.63;;
10063;SDS011;5071;52.360;13.134;2022-09-13T01:57:39;3.33;;;2.50;;
10063;SDS011;5071;52.360;13.134;2022-09-13T02:02:46;2.77;;;2.40;;
10063;SDS011;5071;52.360;13.134;2022-09-13T02:07:52;2.90;;;2.60;;
10063;SDS011;5071;52.360;13.134;2022-09-13T02:13:00;2.77;;;2.50;;
10063;SDS011;5071;52.360;13.134;2022-09-13T02:18:07;2.67;;;2.00;;
10063;SDS011;5071;52.360;13.134;2022-09-13T02:23:13;2.20;;;2.00;;
10063;SDS011;5071;52.360;13.134;2022-09-13T02:28:20;2.17;;;1.93;;
10063;SDS011;5071;52.360;13.134;2022-09-13T02:33:29;2.93;;;2.47;;
10063;SDS011;5071;52.360;13.134;2022-09-13T02:38:38;3.33;;;2.70;;
10063;SDS011;5071;52.360;13.134;2022-09-13T02:43:46;3.10;;;2.83;;
10063;SDS011;5071;52.360;13.134;2022-09-13T02:48:57;2.93;;;2.63;;
10063;SDS011;5071;52.360;13.134;2022-09-13T02:54:04;2.70;;;2.47;;
10063;SDS011;5071;52.360;13.134;2022-09-13T02:59:16;2.50;;;2.30;;
10063;SDS011;5071;52.360;13.134;2022-09-13T03:04:22;2.10;;;1.90;;
10063;SDS011;5071;52.360;13.134;2022-09-13T03:09:24;2.53;;;2.33;;
10063;SDS011;5071;52.360;13.134;2022-09-13T03:14:30;3.00;;;2.73;;
10063;SDS011;5071;52.360;13.134;2022-09-13T03:19:49;2.77;;;2.50;;
10063;SDS011;5071;52.360;13.134;2022-09-13T03:25:04;2.87;;;2.57;;
10063;SDS011;5071;52.360;13.134;2022-09-13T03:30:11;3.50;;;3.03;;
10063;SDS011;5071;52.360;13.134;2022-09-13T03:35:17;3.27;;;2.63;;
10063;SDS011;5071;52.360;13.134;2022-09-13T03:40:30;3.87;;;2.50;;
10063;SDS011;5071;52.360;13.134;2022-09-13T03:45:41;2.83;;;2.53;;
10063;SDS011;5071;52.360;13.134;2022-09-13T03:50:48;3.20;;;2.87;;
10063;SDS011;5071;52.360;13.134;2022-09-13T03:55:51;4.13;;;3.03;;
10063;SDS011;5071;52.360;13.134;2022-09-13T04:00:53;3.30;;;3.00;;
10063;SDS011;5071;52.360;13.134;2022-09-13T04:05:56;3.57;;;3.13;;
10063;SDS011;5071;52.360;13.134;2022-09-13T04:10:58;4.70;;;3.93;;
10063;SDS011;5071;52.360;13.134;2022-09-13T04:16:01;5.37;;;4.57;;
10063;SDS011;5071;52.360;13.134;2022-09-13T04:21:06;6.13;;;5.23;;
10063;SDS011;5071;52.360;13.134;2022-09-13T04:26:09;7.83;;;5.23;;
10063;SDS011;5071;52.360;13.134;2022-09-13T04:31:11;5.60;;;5.10;;
10063;SDS011;5071;52.360;13.134;2022-09-13T04:36:14;8.50;;;6.10;;
10063;SDS011;5071;52.360;13.134;2022-09-13T04:41:15;7.20;;;5.10;;
10063;SDS011;5071;52.360;13.134;2022-09-13T04:46:17;6.70;;;6.00;;
10063;SDS011;5071;52.360;13.134;2022-09-13T04:51:20;6.90;;;6.17;;
10063;SDS011;5071;52.360;13.134;2022-09-13T04:56:22;12.70;;;6.90;;
10063;SDS011;5071;52.360;13.134;2022-09-13T05:01:25;8.60;;;6.67;;
10063;SDS011;5071;52.360;13.134;2022-09-13T05:06:29;9.03;;;7.60;;
10063;SDS011;5071;52.360;13.134;2022-09-13T05:11:31;11.97;;;6.70;;
10063;SDS011;5071;52.360;13.134;2022-09-13T05:16:34;8.33;;;7.07;;
10063;SDS011;5071;52.360;13.134;2022-09-13T05:21:37;9.03;;;6.90;;
10063;SDS011;5071;52.360;13.134;2022-09-13T05:26:38;7.90;;;6.77;;
10063;SDS011;5071;52.360;13.134;2022-09-13T05:31:41;9.17;;;6.90;;
10063;SDS011;5071;52.360;13.134;2022-09-13T05:36:46;10.50;;;6.93;;
10063;SDS011;5071;52.360;13.134;2022-09-13T05:41:54;7.97;;;6.60;;
10063;SDS011;5071;52.360;13.134;2022-09-13T05:46:56;10.73;;;6.73;;
10063;SDS011;5071;52.360;13.134;2022-09-13T05:52:00;8.93;;;7.40;;
10063;SDS011;5071;52.360;13.134;2022-09-13T05:57:02;8.23;;;6.23;;
10063;SDS011;5071;52.360;13.134;2022-09-13T06:02:05;10.10;;;6.80;;
10063;SDS011;5071;52.360;13.134;2022-09-13T06:07:10;9.23;;;6.50;;
10063;SDS011;5071;52.360;13.134;2022-09-13T06:12:13;10.97;;;6.90;;
10063;SDS011;5071;52.360;13.134;2022-09-13T06:17:15;12.50;;;7.43;;
10063;SDS011;5071;52.360;13.134;2022-09-13T06:22:18;9.37;;;7.27;;
10063;SDS011;5071;52.360;13.134;2022-09-13T06:27:20;8.67;;;6.93;;
10063;SDS011;5071;52.360;13.134;2022-09-13T06:32:22;8.40;;;6.97;;
10063;SDS011;5071;52.360;13.134;2022-09-13T06:37:25;7.83;;;6.20;;
10063;SDS011;5071;52.360;13.134;2022-09-13T06:42:26;9.73;;;6.23;;
10063;SDS011;5071;52.360;13.134;2022-09-13T06:47:28;8.47;;;6.00;;
10063;SDS011;5071;52.360;13.134;2022-09-13T06:52:31;9.27;;;6.40;;
10063;SDS011;5071;52.360;13.134;2022-09-13T06:57:33;10.10;;;6.57;;
10063;SDS011;5071;52.360;13.134;2022-09-13T07:02:35;8.87;;;5.57;;
10063;SDS011;5071;52.360;13.134;2022-09-13T07:07:38;10.90;;;6.03;;
10063;SDS011;5071;52.360;13.134;2022-09-13T07:12:40;8.53;;;5.83;;
10063;SDS011;5071;52.360;13.134;2022-09-13T07:17:42;8.70;;;6.50;;
10063;SDS011;5071;52.360;13.134;2022-09-13T07:22:45;5.60;;;5.10;;
10063;SDS011;5071;52.360;13.134;2022-09-13T07:27:47;10.43;;;6.27;;
10063;SDS011;5071;52.360;13.134;2022-09-13T07:32:49;6.20;;;5.50;;
10063;SDS011;5071;52.360;13.134;2022-09-13T07:37:52;10.57;;;6.57;;
10063;SDS011;5071;52.360;13.134;2022-09-13T07:42:54;6.73;;;6.03;;
10063;SDS011;5071;52.360;13.134;2022-09-13T07:47:56;7.17;;;6.40;;
10063;SDS011;5071;52.360;13.134;2022-09-13T07:52:59;6.97;;;5.67;;
10063;SDS011;5071;52.360;13.134;2022-09-13T07:58:01;10.30;;;6.97;;
10063;SDS011;5071;52.360;13.134;2022-09-13T08:03:03;7.97;;;5.97;;
10063;SDS011;5071;52.360;13.134;2022-09-13T08:08:06;10.47;;;6.33;;
10063;SDS011;5071;52.360;13.134;2022-09-13T08:13:08;9.03;;;5.67;;
10063;SDS011;5071;52.360;13.134;2022-09-13T08:18:09;9.73;;;6.40;;
10063;SDS011;5071;52.360;13.134;2022-09-13T08:23:13;8.07;;;5.73;;
10063;SDS011;5071;52.360;13.134;2022-09-13T08:28:16;7.17;;;6.47;;
10063;SDS011;5071;52.360;13.134;2022-09-13T08:33:19;9.20;;;6.40;;
10063;SDS011;5071;52.360;13.134;2022-09-13T08:38:22;7.87;;;5.80;;
10063;SDS011;5071;52.360;13.134;2022-09-13T08:43:27;7.30;;;6.37;;
10063;SDS011;5071;52.360;13.134;2022-09-13T08:48:39;8.47;;;5.87;;
10063;SDS011;5071;52.360;13.134;2022-09-13T08:53:46;6.47;;;5.40;;
10063;SDS011;5071;52.360;13.134;2022-09-13T08:58:56;6.20;;;5.10;;
10063;SDS011;5071;52.360;13.134;2022-09-13T09:04:24;7.60;;;5.00;;
10063;SDS011;5071;52.360;13.134;2022-09-13T09:09:35;7.73;;;5.77;;
10063;SDS011;5071;52.360;13.134;2022-09-13T09:14:48;7.17;;;4.97;;
10063;SDS011;5071;52.360;13.134;2022-09-13T09:20:01;5.73;;;4.43;;
10063;SDS011;5071;52.360;13.134;2022-09-13T09:25:10;5.87;;;4.63;;
10063;SDS011;5071;52.360;13.134;2022-09-13T09:30:12;6.07;;;4.90;;
10063;SDS011;5071;52.360;13.134;2022-09-13T09:35:17;7.60;;;4.33;;
10063;SDS011;5071;52.360;13.134;2022-09-13T09:40:31;4.07;;;3.58;;
10063;SDS011;5071;52.360;13.134;2022-09-13T09:45:34;5.70;;;4.28;;
10063;SDS011;5071;52.360;13.134;2022-09-13T09:50:43;4.05;;;3.65;;
10063;SDS011;5071;52.360;13.134;2022-09-13T09:55:50;4.43;;;4.00;;
10063;SDS011;5071;52.360;13.134;2022-09-13T10:00:56;5.13;;;3.83;;
10063;SDS011;5071;52.360;13.134;2022-09-13T10:06:03;3.58;;;3.10;;
10063;SDS011;5071;52.360;13.134;2022-09-13T10:11:08;4.32;;;3.50;;
10063;SDS011;5071;52.360;13.134;2022-09-13T10:16:20;5.18;;;4.60;;
10063;SDS011;5071;52.360;13.134;2022-09-13T10:21:26;4.40;;;3.30;;
10063;SDS011;5071;52.360;13.134;2022-09-13T10:26:29;4.35;;;3.47;;
10063;SDS011;5071;52.360;13.134;2022-09-13T10:31:34;5.07;;;3.30;;
10063;SDS011;5071;52.360;13.134;2022-09-13T10:36:40;4.20;;;2.75;;
10063;SDS011;5071;52.360;13.134;2022-09-13T10:41:55;4.07;;;2.90;;
10063;SDS011;5071;52.360;13.134;2022-09-13T10:46:59;3.25;;;2.92;;
10063;SDS011;5071;52.360;13.134;2022-09-13T10:52:27;3.13;;;2.83;;
10063;SDS011;5071;52.360;13.134;2022-09-13T10:57:36;3.28;;;2.97;;
10063;SDS011;5071;52.360;13.134;2022-09-13T11:02:42;3.40;;;2.97;;
10063;SDS011;5071;52.360;13.134;2022-09-13T11:13:37;4.43;;;3.53;;
10063;SDS011;5071;52.360;13.134;2022-09-13T11:18:56;6.10;;;4.23;;
10063;SDS011;5071;52.360;13.134;2022-09-13T11:24:18;5.97;;;4.23;;
10063;SDS011;5071;52.360;13.134;2022-09-13T11:29:45;6.70;;;3.97;;
10063;SDS011;5071;52.360;13.134;2022-09-13T11:35:06;7.10;;;4.80;;
10063;SDS011;5071;52.360;13.134;2022-09-13T11:45:49;5.87;;;4.57;;
10063;SDS011;5071;52.360;13.134;2022-09-13T11:51:02;7.00;;;5.33;;
10063;SDS011;5071;52.360;13.134;2022-09-13T11:56:12;6.87;;;4.90;;
10063;SDS011;5071;52.360;13.134;2022-09-13T12:01:22;8.10;;;5.00;;
10063;SDS011;5071;52.360;13.134;2022-09-13T12:06:29;6.30;;;4.40;;
10063;SDS011;5071;52.360;13.134;2022-09-13T12:11:34;7.23;;;5.57;;
10063;SDS011;5071;52.360;13.134;2022-09-13T12:16:41;7.07;;;4.63;;
10063;SDS011;5071;52.360;13.134;2022-09-13T12:21:46;5.40;;;4.27;;
10063;SDS011;5071;52.360;13.134;2022-09-13T12:26:52;6.43;;;4.80;;
10063;SDS011;5071;52.360;13.134;2022-09-13T12:32:02;7.30;;;4.53;;
10063;SDS011;5071;52.360;13.134;2022-09-13T12:37:08;6.20;;;5.00;;
10063;SDS011;5071;52.360;13.134;2022-09-13T12:42:26;7.30;;;4.83;;
10063;SDS011;5071;52.360;13.134;2022-09-13T12:47:45;5.10;;;4.37;;
10063;SDS011;5071;52.360;13.134;2022-09-13T12:53:02;5.33;;;4.40;;
10063;SDS011;5071;52.360;13.134;2022-09-13T12:58:16;4.77;;;4.03;;
10063;SDS011;5071;52.360;13.134;2022-09-13T13:03:41;4.90;;;3.87;;
10063;SDS011;5071;52.360;13.134;2022-09-13T13:08:49;6.53;;;4.68;;
10063;SDS011;5071;52.360;13.134;2022-09-13T13:13:54;4.77;;;4.10;;
10063;SDS011;5071;52.360;13.134;2022-09-13T13:18:59;4.75;;;4.13;;
10063;SDS011;5071;52.360;13.134;2022-09-13T13:29:37;6.03;;;5.30;;
10063;SDS011;5071;52.360;13.134;2022-09-13T13:34:41;4.55;;;4.07;;
10063;SDS011;5071;52.360;13.134;2022-09-13T13:39:46;6.90;;;5.28;;
10063;SDS011;5071;52.360;13.134;2022-09-13T13:50:21;7.18;;;4.80;;
10063;SDS011;5071;52.360;13.134;2022-09-13T13:55:36;5.50;;;4.97;;
10063;SDS011;5071;52.360;13.134;2022-09-13T14:00:44;6.32;;;5.30;;
10063;SDS011;5071;52.360;13.134;2022-09-13T14:05:51;5.97;;;4.57;;
10063;SDS011;5071;52.360;13.134;2022-09-13T14:10:59;5.03;;;4.40;;
10063;SDS011;5071;52.360;13.134;2022-09-13T14:16:11;5.40;;;4.00;;
10063;SDS011;5071;52.360;13.134;2022-09-13T14:21:29;7.03;;;4.80;;
10063;SDS011;5071;52.360;13.134;2022-09-13T14:26:31;6.47;;;4.30;;
10063;SDS011;5071;52.360;13.134;2022-09-13T14:31:36;7.70;;;4.18;;
10063;SDS011;5071;52.360;13.134;2022-09-13T14:36:40;4.87;;;3.87;;
10063;SDS011;5071;52.360;13.134;2022-09-13T14:41:58;4.55;;;3.63;;
10063;SDS011;5071;52.360;13.134;2022-09-13T14:47:04;3.72;;;3.33;;
10063;SDS011;5071;52.360;13.134;2022-09-13T14:52:16;3.97;;;3.00;;
10063;SDS011;5071;52.360;13.134;2022-09-13T14:57:24;3.13;;;2.65;;
10063;SDS011;5071;52.360;13.134;2022-09-13T15:02:30;3.33;;;2.30;;
10063;SDS011;5071;52.360;13.134;2022-09-13T15:07:38;3.70;;;2.80;;
10063;SDS011;5071;52.360;13.134;2022-09-13T15:12:48;3.57;;;2.43;;
10063;SDS011;5071;52.360;13.134;2022-09-13T15:17:52;3.13;;;2.70;;
10063;SDS011;5071;52.360;13.134;2022-09-13T15:22:57;4.57;;;3.00;;
10063;SDS011;5071;52.360;13.134;2022-09-13T15:27:58;3.70;;;2.90;;
10063;SDS011;5071;52.360;13.134;2022-09-13T15:33:04;3.47;;;2.57;;
10063;SDS011;5071;52.360;13.134;2022-09-13T15:38:17;3.70;;;2.60;;
10063;SDS011;5071;52.360;13.134;2022-09-13T15:43:23;3.17;;;2.50;;
10063;SDS011;5071;52.360;13.134;2022-09-13T15:48:27;2.90;;;2.37;;
10063;SDS011;5071;52.360;13.134;2022-09-13T15:53:31;2.63;;;2.20;;
10063;SDS011;5071;52.360;13.134;2022-09-13T15:58:33;2.63;;;2.27;;
10063;SDS011;5071;52.360;13.134;2022-09-13T16:03:36;2.60;;;2.10;;
10063;SDS011;5071;52.360;13.134;2022-09-13T16:08:39;3.77;;;2.43;;
10063;SDS011;5071;52.360;13.134;2022-09-13T16:13:42;2.63;;;1.97;;
10063;SDS011;5071;52.360;13.134;2022-09-13T16:18:43;2.57;;;2.30;;
10063;SDS011;5071;52.360;13.134;2022-09-13T16:23:47;2.63;;;2.10;;
10063;SDS011;5071;52.360;13.134;2022-09-13T16:28:49;2.17;;;1.87;;
10063;SDS011;5071;52.360;13.134;2022-09-13T16:33:53;3.77;;;2.03;;
10063;SDS011;5071;52.360;13.134;2022-09-13T16:38:57;2.27;;;2.00;;
10063;SDS011;5071;52.360;13.134;2022-09-13T16:44:00;4.10;;;2.00;;
10063;SDS011;5071;52.360;13.134;2022-09-13T16:49:03;4.70;;;2.27;;
10063;SDS011;5071;52.360;13.134;2022-09-13T16:54:08;5.43;;;2.17;;
10063;SDS011;5071;52.360;13.134;2022-09-13T16:59:13;2.47;;;1.53;;
10063;SDS011;5071;52.360;13.134;2022-09-13T17:04:16;1.60;;;1.50;;
10063;SDS011;5071;52.360;13.134;2022-09-13T17:09:20;1.60;;;1.20;;
10063;SDS011;5071;52.360;13.134;2022-09-13T17:14:22;2.93;;;1.50;;
10063;SDS011;5071;52.360;13.134;2022-09-13T17:19:26;2.00;;;1.47;;
10063;SDS011;5071;52.360;13.134;2022-09-13T17:24:32;2.07;;;1.40;;
10063;SDS011;5071;52.360;13.134;2022-09-13T17:29:35;2.53;;;1.50;;
10063;SDS011;5071;52.360;13.134;2022-09-13T17:34:37;2.53;;;1.30;;
10063;SDS011;5071;52.360;13.134;2022-09-13T17:39:40;1.40;;;1.30;;
10063;SDS011;5071;52.360;13.134;2022-09-13T17:44:42;3.10;;;1.47;;
10063;SDS011;5071;52.360;13.134;2022-09-13T17:49:44;3.33;;;1.83;;
10063;SDS011;5071;52.360;13.134;2022-09-13T17:54:48;3.20;;;2.33;;
10063;SDS011;5071;52.360;13.134;2022-09-13T17:59:49;2.57;;;2.20;;
10063;SDS011;5071;52.360;13.134;2022-09-13T18:04:51;2.63;;;2.10;;
10063;SDS011;5071;52.360;13.134;2022-09-13T18:09:55;4.53;;;2.30;;
10063;SDS011;5071;52.360;13.134;2022-09-13T18:14:57;2.67;;;2.47;;
10063;SDS011;5071;52.360;13.134;2022-09-13T18:19:59;2.83;;;2.30;;
10063;SDS011;5071;52.360;13.134;2022-09-13T18:25:03;3.53;;;2.40;;
10063;SDS011;5071;52.360;13.134;2022-09-13T18:30:05;3.63;;;2.40;;
10063;SDS011;5071;52.360;13.134;2022-09-13T18:35:08;3.43;;;2.60;;
10063;SDS011;5071;52.360;13.134;2022-09-13T18:40:12;3.30;;;2.67;;
10063;SDS011;5071;52.360;13.134;2022-09-13T18:45:14;5.00;;;3.97;;
10063;SDS011;5071;52.360;13.134;2022-09-13T18:50:16;5.27;;;3.87;;
10063;SDS011;5071;52.360;13.134;2022-09-13T18:55:22;6.70;;;4.00;;
10063;SDS011;5071;52.360;13.134;2022-09-13T19:00:27;6.77;;;4.10;;
10063;SDS011;5071;52.360;13.134;2022-09-13T19:05:30;4.10;;;3.47;;
10063;SDS011;5071;52.360;13.134;2022-09-13T19:10:37;6.73;;;3.90;;
10063;SDS011;5071;52.360;13.134;2022-09-13T19:15:39;6.67;;;5.17;;
10063;SDS011;5071;52.360;13.134;2022-09-13T19:20:42;4.83;;;4.30;;
10063;SDS011;5071;52.360;13.134;2022-09-13T19:25:47;4.57;;;3.70;;
10063;SDS011;5071;52.360;13.134;2022-09-13T19:30:49;5.97;;;4.50;;
10063;SDS011;5071;52.360;13.134;2022-09-13T19:35:55;6.17;;;5.20;;
10063;SDS011;5071;52.360;13.134;2022-09-13T19:41:03;7.10;;;5.03;;
10063;SDS011;5071;52.360;13.134;2022-09-13T19:46:08;6.10;;;5.37;;
10063;SDS011;5071;52.360;13.134;2022-09-13T19:51:14;5.70;;;4.60;;
10063;SDS011;5071;52.360;13.134;2022-09-13T19:56:18;6.33;;;4.57;;
10063;SDS011;5071;52.360;13.134;2022-09-13T20:01:24;5.67;;;4.63;;
10063;SDS011;5071;52.360;13.134;2022-09-13T20:06:32;5.60;;;5.00;;
10063;SDS011;5071;52.360;13.134;2022-09-13T20:11:37;6.83;;;5.40;;
10063;SDS011;5071;52.360;13.134;2022-09-13T20:16:43;7.87;;;5.37;;
10063;SDS011;5071;52.360;13.134;2022-09-13T20:21:45;5.33;;;4.37;;
10063;SDS011;5071;52.360;13.134;2022-09-13T20:26:50;5.87;;;4.60;;
10063;SDS011;5071;52.360;13.134;2022-09-13T20:31:52;6.87;;;4.67;;
10063;SDS011;5071;52.360;13.134;2022-09-13T20:36:55;8.40;;;5.20;;
10063;SDS011;5071;52.360;13.134;2022-09-13T20:41:58;7.77;;;5.70;;
10063;SDS011;5071;52.360;13.134;2022-09-13T20:47:00;5.07;;;4.33;;
10063;SDS011;5071;52.360;13.134;2022-09-13T20:52:02;5.50;;;4.33;;
10063;SDS011;5071;52.360;13.134;2022-09-13T20:57:06;6.67;;;4.10;;
10063;SDS011;5071;52.360;13.134;2022-09-13T21:02:15;5.97;;;3.70;;
10063;SDS011;5071;52.360;13.134;2022-09-13T21:07:18;4.83;;;4.30;;
10063;SDS011;5071;52.360;13.134;2022-09-13T21:12:22;5.23;;;4.03;;
10063;SDS011;5071;52.360;13.134;2022-09-13T21:17:24;5.27;;;3.90;;
10063;SDS011;5071;52.360;13.134;2022-09-13T21:22:26;3.80;;;3.50;;
10063;SDS011;5071;52.360;13.134;2022-09-13T21:27:29;4.77;;;3.73;;
10063;SDS011;5071;52.360;13.134;2022-09-13T21:32:31;4.50;;;3.57;;
10063;SDS011;5071;52.360;13.134;2022-09-13T21:37:37;6.63;;;3.93;;
10063;SDS011;5071;52.360;13.134;2022-09-13T21:42:40;4.67;;;4.13;;
10063;SDS011;5071;52.360;13.134;2022-09-13T21:47:42;4.43;;;3.90;;
10063;SDS011;5071;52.360;13.134;2022-09-13T21:52:44;4.97;;;4.00;;
10063;SDS011;5071;52.360;13.134;2022-09-13T21:57:48;9.50;;;4.27;;
10063;SDS011;5071;52.360;13.134;2022-09-13T22:02:50;4.57;;;4.10;;
10063;SDS011;5071;52.360;13.134;2022-09-13T22:07:52;4.80;;;3.97;;
10063;SDS011;5071;52.360;13.134;2022-09-13T22:12:55;4.47;;;3.47;;
10063;SDS011;5071;52.360;13.134;2022-09-13T22:17:57;4.63;;;3.20;;
10063;SDS011;5071;52.360;13.134;2022-09-13T22:22:59;5.10;;;3.50;;
10063;SDS011;5071;52.360;13.134;2022-09-13T22:28:03;4.43;;;3.40;;
10063;SDS011;5071;52.360;13.134;2022-09-13T22:33:04;4.37;;;3.80;;
10063;SDS011;5071;52.360;13.134;2022-09-13T22:38:06;4.43;;;3.80;;
10063;SDS011;5071;52.360;13.134;2022-09-13T22:43:09;4.50;;;3.70;;
10063;SDS011;5071;52.360;13.134;2022-09-13T22:48:11;5.27;;;3.20;;
10063;SDS011;5071;52.360;13.134;2022-09-13T22:53:13;3.50;;;3.20;;
10063;SDS011;5071;52.360;13.134;2022-09-13T22:58:17;3.83;;;3.20;;
10063;SDS011;5071;52.360;13.134;2022-09-13T23:03:19;5.60;;;3.37;;
10063;SDS011;5071;52.360;13.134;2022-09-13T23:08:21;4.07;;;3.13;;
10063;SDS011;5071;52.360;13.134;2022-09-13T23:13:25;4.00;;;2.90;;
10063;SDS011;5071;52.360;13.134;2022-09-13T23:18:27;3.83;;;2.87;;
10063;SDS011;5071;52.360;13.134;2022-09-13T23:23:31;4.03;;;2.90;;
10063;SDS011;5071;52.360;13.134;2022-09-13T23:28:34;4.87;;;3.10;;
10063;SDS011;5071;52.360;13.134;2022-09-13T23:33:37;4.90;;;3.37;;
10063;SDS011;5071;52.360;13.134;2022-09-13T23:38:43;3.57;;;3.20;;
10063;SDS011;5071;52.360;13.134;2022-09-13T23:43:48;6.33;;;3.03;;
10063;SDS011;5071;52.360;13.134;2022-09-13T23:48:50;4.47;;;2.83;;
10063;SDS011;5071;52.360;13.134;2022-09-13T23:53:53;5.40;;;3.00;;
10063;SDS011;5071;52.360;13.134;2022-09-13T23:58:59;2.93;;;2.53;;
